Port Huron, MI (48060)

5:28 AM EST on December 06, 2016 (GMT -0500)
Church and 17th Ave | | Change Station

Elev 604 ft 43.00 °N, 82.44 °W | Updated 36 seconds ago

Scattered Clouds
Scattered Clouds
27.0 °F
Feels Like 27 °F
N
1.7
Wind Variable Wind from East
Gusts 2.2 mph

Today
High -- | Low -- °F
--% Chance of Precip.
Yesterday
High -- | Low -- °F
Precip. -- in
Pressure 29.99 in
Visibility 5.0 miles
Clouds Scattered Clouds 2000 ft
Windchill 27 °F
Dew Point 25 °F
Humidity 93%
Rainfall 0.00 in
Snow Depth Not available.
7:46 AM 4:55 PM
Waxing Crescent, 40% visible
METAR KPHN 061017Z AUTO 00000KT 5SM BR SCT020 M04/M04 A2999 RMK AO2
Pressure 29.99 in
Visibility 5.0 miles
Clouds Scattered Clouds 2000 ft
Windchill 27 °F
Dew Point 25 °F
Humidity 93%
Rainfall 0.00 in
Snow Depth Not available.
7:46 AM 4:55 PM
Waxing Crescent, 40% visible
METAR KPHN 061017Z AUTO 00000KT 5SM BR SCT020 M04/M04 A2999 RMK AO2

10-Day Weather Forecast

Almanac

Astronomy

Dec. 06, 2016 Rise Set
Actual Time
Civil Twilight
Nautical Twilight
Astronomical Twilight
Moon
Length of Visible Light
Length of Day
Tomorrow will be .
, % of the Moon is Illuminated

Today's Extremes

State Highs State Lows

Community

WunderPhotos

Upload Photos

1,955,935 photos uploaded!

WunderBlog® & News

Nearby

Air Quality

  Air Quality AQ Index Pollutant
Not available.

Snow Depth

Station Depth Elevation

Earthquake Activity

City Distance Mag. Time & Date
Minimum magnitude displayed is 2.5.

Coastal Water Temperatures

Place Temperature

Stations

Nearby Weather Stations

Station Location Temp. Windchill Dew Point Humidity Wind Precip. Elev Updated Type
                   

Watches & Warnings

There are currently no watches in effect.